Time;durP1;ratioP1;P1;durP2;ratioP2;P2;SDS_P1;SDS_P2;PMS_P1;PMS_P2;Temp;Humidity;BMP_temperature;BMP_pressure;BME280_temperature;BME280_humidity;BME280_pressure;Samples;Min_cycle;Max_cycle;Signal;HPM_P1;HPM_P2
2022/10/07 00:01:00;;;;;;;3.30;2.10;;;;;;;;;;5048805;28;20225;-42
2022/10/07 00:03:28;;;;;;;4.03;1.80;;;;;;;;;;5038573;28;20211;-41
2022/10/07 00:06:02;;;;;;;3.80;1.73;;;;;;;;;;5043234;28;20316;-42
2022/10/07 00:08:29;;;;;;;4.73;2.10;;;;;;;;;;5048743;28;20206;-40
2022/10/07 00:10:57;;;;;;;8.00;2.00;;;;;;;;;;5043479;28;20226;-44
2022/10/07 00:13:24;;;;;;;5.77;2.33;;;;;;;;;;5034562;28;20676;-44
2022/10/07 00:15:52;;;;;;;7.67;2.40;;;;;;;;;;5052939;28;20225;-41
2022/10/07 00:18:19;;;;;;;2.93;2.00;;;;;;;;;;5041294;28;20233;-38
2022/10/07 00:20:46;;;;;;;3.17;2.03;;;;;;;;;;5053169;28;20245;-43
2022/10/07 00:23:13;;;;;;;2.10;1.90;;;;;;;;;;5055430;28;20202;-46
2022/10/07 00:25:40;;;;;;;5.77;1.80;;;;;;;;;;5053352;28;20204;-43
2022/10/07 00:28:09;;;;;;;1.87;1.70;;;;;;;;;;5047504;28;20212;-40
2022/10/07 00:30:36;;;;;;;3.43;2.17;;;;;;;;;;5037142;28;20221;-44
2022/10/07 00:33:03;;;;;;;3.93;1.73;;;;;;;;;;5050753;28;20210;-41
2022/10/07 00:35:30;;;;;;;5.30;2.17;;;;;;;;;;5047664;28;20547;-41
2022/10/07 00:37:58;;;;;;;4.67;2.17;;;;;;;;;;5053034;28;20224;-44
2022/10/07 00:40:25;;;;;;;2.77;2.00;;;;;;;;;;5052905;28;20221;-42
2022/10/07 00:42:52;;;;;;;3.37;2.13;;;;;;;;;;5042953;28;20213;-46
2022/10/07 00:45:20;;;;;;;4.63;2.30;;;;;;;;;;5048672;28;20202;-43
2022/10/07 00:47:49;;;;;;;2.17;1.40;;;;;;;;;;5038639;28;20198;-43
2022/10/07 00:50:19;;;;;;;2.50;1.70;;;;;;;;;;5048200;28;20226;-41
2022/10/07 00:52:49;;;;;;;2.83;2.53;;;;;;;;;;5032906;28;20195;-41
2022/10/07 00:55:17;;;;;;;2.57;1.67;;;;;;;;;;5032550;28;20202;-45
2022/10/07 00:57:45;;;;;;;4.57;1.80;;;;;;;;;;5040685;28;20226;-39
2022/10/07 01:00:12;;;;;;;2.73;2.20;;;;;;;;;;5049355;28;20238;-38
2022/10/07 01:02:41;;;;;;;3.80;1.80;;;;;;;;;;5041056;28;20202;-43
2022/10/07 01:05:09;;;;;;;5.60;1.83;;;;;;;;;;5050755;28;20209;-43
2022/10/07 01:07:38;;;;;;;5.37;1.50;;;;;;;;;;5051644;28;20209;-45
2022/10/07 01:10:05;;;;;;;1.57;1.47;;;;;;;;;;5042708;28;20280;-41
2022/10/07 01:12:40;;;;;;;2.87;1.90;;;;;;;;;;5042921;28;20207;-45
2022/10/07 01:15:12;;;;;;;4.20;2.07;;;;;;;;;;5051794;28;20209;-45
2022/10/07 01:17:46;;;;;;;4.73;1.87;;;;;;;;;;5044975;28;20245;-40
2022/10/07 01:20:19;;;;;;;4.03;1.77;;;;;;;;;;5042343;28;20242;-42
2022/10/07 01:22:49;;;;;;;1.67;1.57;;;;;;;;;;5044871;28;20269;-43
2022/10/07 01:25:31;;;;;;;2.50;1.63;;;;;;;;;;5052031;28;20228;-44
2022/10/07 01:28:01;;;;;;;3.63;1.70;;;;;;;;;;5045072;28;20206;-44
2022/10/07 01:30:30;;;;;;;4.17;1.90;;;;;;;;;;5049802;28;20234;-42
2022/10/07 01:33:01;;;;;;;2.37;1.60;;;;;;;;;;5044003;28;20206;-42
2022/10/07 01:35:33;;;;;;;3.93;1.60;;;;;;;;;;5051710;28;20500;-44
2022/10/07 01:38:03;;;;;;;2.87;1.47;;;;;;;;;;5051880;28;20254;-44
2022/10/07 01:40:33;;;;;;;5.70;2.07;;;;;;;;;;5050592;28;20222;-45
2022/10/07 01:43:02;;;;;;;3.13;1.60;;;;;;;;;;5045855;28;20198;-43
2022/10/07 01:45:30;;;;;;;4.77;2.20;;;;;;;;;;5050070;28;20205;-44
2022/10/07 01:47:59;;;;;;;5.23;1.87;;;;;;;;;;5042786;28;20212;-42
2022/10/07 01:50:28;;;;;;;3.90;1.87;;;;;;;;;;5048357;28;20226;-40
2022/10/07 01:53:02;;;;;;;3.27;1.70;;;;;;;;;;5046050;28;20214;-43
2022/10/07 01:55:39;;;;;;;3.03;1.43;;;;;;;;;;5049526;28;20713;-44
2022/10/07 01:58:12;;;;;;;1.80;1.40;;;;;;;;;;5044158;28;20303;-42
2022/10/07 02:00:43;;;;;;;4.23;1.80;;;;;;;;;;5050352;28;20223;-41
2022/10/07 02:03:20;;;;;;;3.37;1.53;;;;;;;;;;5041865;28;20309;-44
2022/10/07 02:05:50;;;;;;;2.13;1.67;;;;;;;;;;5044009;28;20273;-41
2022/10/07 02:08:24;;;;;;;4.13;1.67;;;;;;;;;;5035052;28;20718;-43
2022/10/07 02:10:55;;;;;;;3.00;1.87;;;;;;;;;;5033413;28;20313;-42
2022/10/07 02:13:28;;;;;;;2.67;1.70;;;;;;;;;;5045651;28;20210;-45
2022/10/07 02:16:00;;;;;;;2.50;1.53;;;;;;;;;;5051262;28;20213;-43
2022/10/07 02:18:30;;;;;;;3.27;1.57;;;;;;;;;;5042559;28;20222;-45
2022/10/07 02:20:57;;;;;;;4.47;1.57;;;;;;;;;;5044979;28;20308;-43
2022/10/07 02:23:26;;;;;;;5.90;1.70;;;;;;;;;;5051110;28;20210;-41
2022/10/07 02:25:54;;;;;;;3.47;1.50;;;;;;;;;;5043349;28;20248;-43
2022/10/07 02:28:23;;;;;;;1.73;1.50;;;;;;;;;;5050238;28;20407;-43
2022/10/07 02:30:53;;;;;;;5.53;1.50;;;;;;;;;;5051246;28;20218;-45
2022/10/07 02:33:21;;;;;;;2.50;1.30;;;;;;;;;;5039264;28;20216;-45
2022/10/07 02:35:51;;;;;;;2.60;1.27;;;;;;;;;;5045175;28;20210;-40
2022/10/07 02:38:18;;;;;;;3.07;1.43;;;;;;;;;;5050410;28;20313;-40
2022/10/07 02:40:48;;;;;;;1.50;1.40;;;;;;;;;;5049757;28;20232;-45
2022/10/07 02:43:19;;;;;;;2.00;1.50;;;;;;;;;;5046959;28;20206;-42
2022/10/07 02:45:49;;;;;;;2.20;1.43;;;;;;;;;;5050545;28;20195;-44
2022/10/07 02:48:21;;;;;;;3.20;1.77;;;;;;;;;;5038886;28;20676;-43
2022/10/07 02:50:50;;;;;;;3.90;1.30;;;;;;;;;;5045039;28;20229;-43
2022/10/07 02:53:17;;;;;;;2.57;1.40;;;;;;;;;;5051177;28;20215;-43
2022/10/07 02:55:45;;;;;;;2.87;1.60;;;;;;;;;;5050672;28;20213;-43
2022/10/07 02:58:13;;;;;;;2.77;1.50;;;;;;;;;;5041088;28;20221;-42
2022/10/07 03:00:43;;;;;;;4.53;1.70;;;;;;;;;;5050602;28;20308;-43
2022/10/07 03:03:10;;;;;;;3.47;1.50;;;;;;;;;;5039414;28;20213;-44
2022/10/07 03:05:39;;;;;;;3.50;1.77;;;;;;;;;;5043872;28;20209;-41
2022/10/07 03:08:07;;;;;;;4.37;1.47;;;;;;;;;;5051122;28;20198;-40
2022/10/07 03:10:34;;;;;;;8.40;2.10;;;;;;;;;;5043340;28;20238;-42
2022/10/07 03:13:03;;;;;;;3.57;1.73;;;;;;;;;;5045474;28;20212;-44
2022/10/07 03:15:31;;;;;;;2.00;1.50;;;;;;;;;;5050545;28;20206;-42
2022/10/07 03:17:58;;;;;;;1.97;1.40;;;;;;;;;;5044055;28;20233;-43
2022/10/07 03:20:25;;;;;;;3.33;1.70;;;;;;;;;;5051737;28;20237;-43
2022/10/07 03:22:54;;;;;;;3.10;1.60;;;;;;;;;;5052854;28;20207;-43
2022/10/07 03:25:21;;;;;;;5.13;1.47;;;;;;;;;;5052552;28;20207;-42
2022/10/07 03:27:48;;;;;;;1.77;1.40;;;;;;;;;;5042144;28;20198;-41
2022/10/07 03:30:16;;;;;;;1.47;1.07;;;;;;;;;;5049084;28;20241;-38
2022/10/07 03:32:43;;;;;;;4.60;1.80;;;;;;;;;;5040933;28;20208;-44
2022/10/07 03:35:10;;;;;;;3.70;1.90;;;;;;;;;;5039218;28;20213;-46
2022/10/07 03:37:37;;;;;;;2.00;1.50;;;;;;;;;;5049237;28;20198;-45
2022/10/07 03:40:06;;;;;;;2.23;1.60;;;;;;;;;;5045781;28;20225;-43
2022/10/07 03:42:33;;;;;;;1.90;1.70;;;;;;;;;;5037070;28;20208;-42
2022/10/07 03:45:01;;;;;;;2.60;1.87;;;;;;;;;;5048966;28;20293;-43
2022/10/07 03:47:28;;;;;;;5.70;2.07;;;;;;;;;;5043238;28;20210;-39
2022/10/07 03:49:55;;;;;;;2.10;1.33;;;;;;;;;;5041883;28;20249;-42
2022/10/07 03:52:23;;;;;;;2.77;1.30;;;;;;;;;;5049281;28;20229;-44
2022/10/07 03:54:51;;;;;;;2.07;1.50;;;;;;;;;;5049509;28;20225;-44
2022/10/07 04:00:04;;;;;;;2.90;2.30;;;;;;;;;;5048624;28;20241;-44
2022/10/07 04:02:32;;;;;;;5.13;4.77;;;;;;;;;;5037796;28;20217;-44
2022/10/07 04:04:59;;;;;;;11.07;2.70;;;;;;;;;;5042761;28;20265;-44
2022/10/07 04:07:26;;;;;;;3.33;2.23;;;;;;;;;;5039276;28;20230;-41
2022/10/07 04:09:53;;;;;;;2.20;2.00;;;;;;;;;;5038874;28;20231;-41
2022/10/07 04:12:22;;;;;;;2.43;1.87;;;;;;;;;;5041302;28;20213;-41
2022/10/07 04:14:49;;;;;;;4.77;1.80;;;;;;;;;;5048606;28;20210;-42
2022/10/07 04:17:18;;;;;;;2.33;1.60;;;;;;;;;;5043688;28;20257;-45
2022/10/07 04:22:14;;;;;;;4.53;2.10;;;;;;;;;;5048083;28;20218;-35
2022/10/07 04:24:41;;;;;;;3.40;2.23;;;;;;;;;;5047447;28;20232;-33
2022/10/07 04:27:08;;;;;;;4.73;2.13;;;;;;;;;;5041939;28;20203;-30
2022/10/07 04:29:36;;;;;;;4.87;1.87;;;;;;;;;;5049058;28;20218;-33
2022/10/07 04:32:04;;;;;;;2.33;1.93;;;;;;;;;;5046360;28;20206;-34
2022/10/07 04:34:31;;;;;;;2.60;2.00;;;;;;;;;;5041425;28;20237;-32
2022/10/07 04:36:59;;;;;;;4.43;2.03;;;;;;;;;;5049009;28;20202;-32
2022/10/07 04:39:27;;;;;;;2.87;2.27;;;;;;;;;;5049428;28;20257;-33
2022/10/07 04:41:54;;;;;;;2.27;1.63;;;;;;;;;;5040145;28;20298;-32
2022/10/07 04:44:21;;;;;;;4.37;2.13;;;;;;;;;;5049474;28;20202;-33
2022/10/07 04:46:50;;;;;;;5.37;1.97;;;;;;;;;;5045424;28;20217;-34
2022/10/07 04:49:17;;;;;;;4.13;2.47;;;;;;;;;;5039943;28;20203;-35
2022/10/07 04:51:44;;;;;;;5.67;2.23;;;;;;;;;;5049037;28;20284;-34
2022/10/07 04:54:12;;;;;;;2.70;1.70;;;;;;;;;;5049759;28;20210;-31
2022/10/07 04:56:39;;;;;;;4.90;2.30;;;;;;;;;;5044933;28;20211;-35
2022/10/07 04:59:06;;;;;;;4.13;2.40;;;;;;;;;;5048369;28;20235;-33
2022/10/07 05:01:33;;;;;;;2.30;2.10;;;;;;;;;;5050130;28;20222;-35
2022/10/07 05:04:02;;;;;;;6.33;1.70;;;;;;;;;;5039488;28;20208;-34
2022/10/07 05:06:29;;;;;;;2.27;2.03;;;;;;;;;;5050938;28;20210;-31
2022/10/07 05:08:56;;;;;;;5.30;2.40;;;;;;;;;;5053007;28;20203;-34
2022/10/07 05:11:24;;;;;;;4.10;2.03;;;;;;;;;;5049686;28;20324;-32
2022/10/07 05:16:20;;;;;;;3.70;1.90;;;;;;;;;;5031165;28;20215;-31
2022/10/07 05:18:47;;;;;;;2.27;2.07;;;;;;;;;;5024034;28;20218;-32
2022/10/07 05:21:15;;;;;;;2.93;1.83;;;;;;;;;;5027174;28;20259;-29
2022/10/07 05:23:43;;;;;;;4.93;2.30;;;;;;;;;;5033065;28;20203;-34
2022/10/07 05:26:13;;;;;;;4.50;2.10;;;;;;;;;;5024519;28;20210;-31
2022/10/07 05:28:41;;;;;;;2.07;1.87;;;;;;;;;;5032200;28;20209;-33
2022/10/07 05:31:10;;;;;;;1.83;1.73;;;;;;;;;;5031536;28;20220;-34
2022/10/07 05:33:37;;;;;;;2.00;1.70;;;;;;;;;;5026523;28;20270;-32
2022/10/07 05:36:05;;;;;;;2.97;2.10;;;;;;;;;;5029982;28;20531;-33
2022/10/07 05:38:33;;;;;;;2.27;2.07;;;;;;;;;;5034693;28;20258;-30
2022/10/07 05:41:04;;;;;;;4.40;2.30;;;;;;;;;;5032059;28;20315;-34
2022/10/07 05:43:32;;;;;;;2.47;1.53;;;;;;;;;;5023480;28;20201;-31
2022/10/07 05:46:02;;;;;;;4.93;2.20;;;;;;;;;;5035347;28;20233;-34
2022/10/07 05:48:30;;;;;;;7.73;2.70;;;;;;;;;;5025569;28;20218;-33
2022/10/07 05:50:59;;;;;;;3.43;2.70;;;;;;;;;;5029194;28;20329;-33
2022/10/07 05:53:27;;;;;;;3.83;2.20;;;;;;;;;;5035092;28;20207;-30
2022/10/07 05:55:56;;;;;;;4.50;2.87;;;;;;;;;;5035081;28;20202;-35
2022/10/07 05:58:24;;;;;;;4.67;2.60;;;;;;;;;;5020844;28;20215;-33
2022/10/07 06:00:52;;;;;;;3.30;2.43;;;;;;;;;;5034991;28;20227;-33
2022/10/07 06:03:19;;;;;;;3.60;2.50;;;;;;;;;;5033361;28;20211;-34
2022/10/07 06:05:47;;;;;;;4.00;2.07;;;;;;;;;;5028819;28;20284;-33
2022/10/07 06:08:14;;;;;;;4.23;2.77;;;;;;;;;;5035009;28;20291;-32
2022/10/07 06:13:32;;;;;;;4.50;2.80;;;;;;;;;;5024843;28;20205;-33
2022/10/07 06:16:03;;;;;;;4.23;2.67;;;;;;;;;;5035054;28;20242;-34
2022/10/07 06:18:30;;;;;;;4.37;2.80;;;;;;;;;;5023124;28;20292;-33
2022/10/07 06:20:58;;;;;;;6.50;3.47;;;;;;;;;;5028884;28;20230;-31
2022/10/07 06:23:25;;;;;;;5.37;3.40;;;;;;;;;;5034770;28;20207;-35
2022/10/07 06:25:55;;;;;;;6.93;3.17;;;;;;;;;;5034427;28;20211;-32
2022/10/07 06:28:22;;;;;;;4.17;2.90;;;;;;;;;;5029842;28;20204;-34
2022/10/07 06:30:51;;;;;;;4.07;2.70;;;;;;;;;;5027198;28;20222;-30
2022/10/07 06:33:19;;;;;;;3.03;2.50;;;;;;;;;;5024733;28;20215;-33
2022/10/07 06:35:46;;;;;;;3.73;2.60;;;;;;;;;;5030453;28;20234;-33
2022/10/07 06:38:17;;;;;;;5.97;3.13;;;;;;;;;;5034558;28;20218;-31
2022/10/07 06:40:44;;;;;;;4.87;3.13;;;;;;;;;;5023867;28;20279;-33
2022/10/07 06:43:12;;;;;;;6.97;3.00;;;;;;;;;;5033098;28;20203;-32
2022/10/07 06:45:41;;;;;;;5.00;3.20;;;;;;;;;;5034083;28;20254;-33
2022/10/07 06:48:10;;;;;;;4.70;2.37;;;;;;;;;;5026182;28;20307;-32
2022/10/07 06:50:37;;;;;;;4.00;2.97;;;;;;;;;;5032293;28;20251;-32
2022/10/07 06:53:09;;;;;;;3.27;2.53;;;;;;;;;;5034657;28;20268;-34
2022/10/07 06:55:37;;;;;;;6.67;2.30;;;;;;;;;;5026008;28;20245;-31
2022/10/07 06:58:04;;;;;;;3.03;2.13;;;;;;;;;;5033330;28;20202;-35
2022/10/07 07:00:31;;;;;;;4.33;2.20;;;;;;;;;;5033493;28;20231;-33
2022/10/07 07:03:00;;;;;;;4.10;2.43;;;;;;;;;;5032269;28;20212;-31
2022/10/07 07:05:29;;;;;;;3.03;2.00;;;;;;;;;;5033230;28;20314;-35
2022/10/07 07:07:57;;;;;;;3.33;2.30;;;;;;;;;;5033578;28;20679;-32
2022/10/07 07:10:25;;;;;;;5.87;2.53;;;;;;;;;;5023670;28;20655;-33
2022/10/07 07:12:53;;;;;;;4.50;2.37;;;;;;;;;;5033003;28;20211;-34
2022/10/07 07:15:21;;;;;;;3.83;2.33;;;;;;;;;;5033187;28;20234;-33
2022/10/07 07:17:48;;;;;;;6.10;2.63;;;;;;;;;;5021165;28;20215;-32
2022/10/07 07:20:16;;;;;;;4.13;2.40;;;;;;;;;;5021869;28;20331;-30
2022/10/07 07:22:44;;;;;;;8.70;3.00;;;;;;;;;;5032849;28;20194;-31
2022/10/07 07:25:12;;;;;;;4.53;2.60;;;;;;;;;;5032872;28;20289;-31
2022/10/07 07:27:40;;;;;;;7.07;2.97;;;;;;;;;;5031709;28;20207;-30
2022/10/07 07:30:07;;;;;;;3.70;3.00;;;;;;;;;;5034765;23;20244;-33
2022/10/07 07:32:34;;;;;;;6.27;3.20;;;;;;;;;;5048571;28;20207;-31
2022/10/07 07:35:03;;;;;;;9.80;3.47;;;;;;;;;;5046809;28;20205;-33
2022/10/07 07:37:33;;;;;;;5.73;3.30;;;;;;;;;;5054536;28;20204;-34
2022/10/07 07:40:05;;;;;;;4.73;3.53;;;;;;;;;;5051962;28;20265;-31
2022/10/07 07:42:32;;;;;;;5.63;3.10;;;;;;;;;;5043296;28;20258;-31
2022/10/07 07:44:59;;;;;;;6.17;3.33;;;;;;;;;;5047973;28;20233;-33
2022/10/07 07:47:27;;;;;;;6.63;3.50;;;;;;;;;;5051900;28;20210;-32
2022/10/07 07:49:57;;;;;;;5.77;3.83;;;;;;;;;;5039260;28;20222;-33
2022/10/07 07:52:25;;;;;;;6.93;3.90;;;;;;;;;;5052423;28;20206;-31
2022/10/07 07:54:56;;;;;;;5.87;4.30;;;;;;;;;;5047788;28;20213;-31
2022/10/07 07:57:28;;;;;;;4.63;3.37;;;;;;;;;;5046061;28;20270;-33
2022/10/07 07:59:55;;;;;;;5.97;3.73;;;;;;;;;;5042882;28;20230;-33
2022/10/07 08:02:23;;;;;;;7.50;3.50;;;;;;;;;;5043562;28;20227;-31
2022/10/07 08:04:51;;;;;;;5.23;3.87;;;;;;;;;;5051741;28;20288;-33
2022/10/07 08:07:18;;;;;;;4.87;3.77;;;;;;;;;;5052366;28;20204;-34
2022/10/07 08:09:45;;;;;;;4.23;3.83;;;;;;;;;;5051569;28;20228;-32
2022/10/07 08:12:13;;;;;;;5.73;3.77;;;;;;;;;;5047851;28;20217;-32
2022/10/07 08:14:42;;;;;;;6.60;3.67;;;;;;;;;;5051021;28;20198;-32
2022/10/07 08:17:09;;;;;;;8.53;4.10;;;;;;;;;;5045381;28;20300;-33
2022/10/07 08:19:37;;;;;;;6.03;3.43;;;;;;;;;;5044441;28;20230;-34
2022/10/07 08:22:05;;;;;;;5.50;3.73;;;;;;;;;;5051383;28;20217;-33
2022/10/07 08:24:33;;;;;;;8.10;3.67;;;;;;;;;;5052681;28;20207;-32
2022/10/07 08:27:00;;;;;;;6.90;3.30;;;;;;;;;;5044415;28;20214;-33
2022/10/07 08:29:37;;;;;;;7.03;3.87;;;;;;;;;;5040709;28;20299;-30
2022/10/07 08:32:06;;;;;;;6.90;3.13;;;;;;;;;;5037550;28;20213;-30
2022/10/07 08:34:35;;;;;;;10.23;3.60;;;;;;;;;;5033948;28;20301;-32
2022/10/07 08:37:02;;;;;;;8.37;2.90;;;;;;;;;;5051759;28;20519;-34
2022/10/07 08:39:30;;;;;;;4.50;3.33;;;;;;;;;;5052128;28;20246;-33
2022/10/07 08:42:05;;;;;;;7.83;3.17;;;;;;;;;;5049197;28;20209;-32
2022/10/07 08:44:34;;;;;;;4.90;2.60;;;;;;;;;;5045070;28;20210;-30
2022/10/07 08:47:11;;;;;;;3.70;2.70;;;;;;;;;;5042274;28;20572;-32
2022/10/07 08:49:43;;;;;;;3.60;2.70;;;;;;;;;;5049799;28;20252;-32
2022/10/07 08:52:19;;;;;;;3.60;2.80;;;;;;;;;;5051454;28;20241;-35
2022/10/07 08:54:47;;;;;;;3.13;2.43;;;;;;;;;;5050777;28;20209;-34
2022/10/07 08:57:20;;;;;;;6.07;3.03;;;;;;;;;;5043445;28;20293;-31
2022/10/07 08:59:50;;;;;;;4.90;2.60;;;;;;;;;;5049090;28;20233;-33
2022/10/07 09:02:27;;;;;;;12.50;3.00;;;;;;;;;;5047496;28;20229;-33
2022/10/07 09:04:57;;;;;;;4.53;3.10;;;;;;;;;;5044748;28;20288;-39
2022/10/07 09:07:30;;;;;;;6.27;2.23;;;;;;;;;;5045815;28;20293;-33
2022/10/07 09:09:59;;;;;;;5.77;2.80;;;;;;;;;;5038645;28;20226;-33
2022/10/07 09:12:29;;;;;;;5.00;2.87;;;;;;;;;;5042309;28;20217;-33
2022/10/07 09:14:58;;;;;;;6.43;2.87;;;;;;;;;;5036805;28;20206;-35
2022/10/07 09:17:29;;;;;;;3.13;2.60;;;;;;;;;;5042694;28;20293;-34
2022/10/07 09:22:28;;;;;;;4.90;2.87;;;;;;;;;;5070103;28;20252;-41
2022/10/07 09:25:00;;;;;;;7.20;3.17;;;;;;;;;;5064783;28;20209;-38
2022/10/07 09:27:28;;;;;;;9.30;2.90;;;;;;;;;;5073683;28;20218;-40
2022/10/07 09:29:55;;;;;;;5.90;3.50;;;;;;;;;;5069622;28;20227;-41
2022/10/07 09:32:23;;;;;;;4.53;3.30;;;;;;;;;;5068885;28;20212;-41
2022/10/07 09:34:52;;;;;;;4.63;3.10;;;;;;;;;;5074774;28;20225;-42
2022/10/07 09:37:20;;;;;;;4.67;3.50;;;;;;;;;;5074204;28;20201;-39
2022/10/07 09:39:49;;;;;;;5.37;3.50;;;;;;;;;;5074966;28;20375;-41
2022/10/07 09:42:31;;;;;;;3.73;2.60;;;;;;;;;;5072727;28;20205;-42
2022/10/07 09:45:01;;;;;;;5.53;3.40;;;;;;;;;;5069654;28;20231;-37
2022/10/07 09:47:31;;;;;;;9.83;3.80;;;;;;;;;;5069750;28;20201;-39
2022/10/07 09:49:59;;;;;;;5.80;2.87;;;;;;;;;;5066454;28;20217;-39
2022/10/07 09:52:30;;;;;;;8.00;3.27;;;;;;;;;;5069726;28;20300;-39
2022/10/07 09:54:58;;;;;;;6.40;3.50;;;;;;;;;;5070101;28;20205;-41
2022/10/07 09:57:27;;;;;;;7.90;3.80;;;;;;;;;;5069072;28;20224;-38
2022/10/07 10:00:16;;;;;;;6.43;3.53;;;;;;;;;;5073073;28;20282;-43
2022/10/07 10:02:46;;;;;;;12.13;4.40;;;;;;;;;;5068627;28;20205;-42
2022/10/07 10:05:22;;;;;;;7.43;4.10;;;;;;;;;;5062790;28;20208;-39
2022/10/07 10:07:53;;;;;;;8.60;4.60;;;;;;;;;;5066012;28;20236;-42
2022/10/07 10:10:22;;;;;;;5.63;4.47;;;;;;;;;;5073795;28;20232;-37
2022/10/07 10:12:51;;;;;;;12.00;5.60;;;;;;;;;;5064837;28;20267;-44
2022/10/07 10:15:25;;;;;;;9.50;5.20;;;;;;;;;;5065252;28;20217;-37
2022/10/07 10:17:53;;;;;;;11.33;6.00;;;;;;;;;;5056841;28;20201;-41
2022/10/07 10:20:34;;;;;;;9.10;5.20;;;;;;;;;;5058367;28;20257;-42
2022/10/07 10:23:02;;;;;;;7.30;5.83;;;;;;;;;;5069915;28;20228;-40
2022/10/07 10:28:23;;;;;;;12.17;5.50;;;;;;;;;;5061291;28;20196;-39
2022/10/07 10:30:53;;;;;;;8.57;5.83;;;;;;;;;;5066354;28;20213;-44
2022/10/07 10:33:24;;;;;;;6.67;5.50;;;;;;;;;;5061240;28;20202;-36
2022/10/07 10:35:58;;;;;;;8.60;5.20;;;;;;;;;;5073745;28;20198;-38
2022/10/07 10:38:31;;;;;;;11.20;5.67;;;;;;;;;;5073688;28;20194;-39
2022/10/07 10:41:02;;;;;;;6.90;5.17;;;;;;;;;;5068412;28;20229;-43
2022/10/07 10:43:34;;;;;;;12.30;6.90;;;;;;;;;;5073101;28;20362;-41
2022/10/07 10:46:06;;;;;;;8.93;6.30;;;;;;;;;;5072649;28;20209;-40
2022/10/07 10:48:40;;;;;;;9.63;5.97;;;;;;;;;;5064826;28;20255;-40
2022/10/07 10:51:16;;;;;;;7.37;5.57;;;;;;;;;;5067530;28;20229;-40
2022/10/07 10:53:46;;;;;;;8.70;5.47;;;;;;;;;;5068519;28;20232;-41
2022/10/07 10:56:19;;;;;;;7.10;6.03;;;;;;;;;;5069497;28;20287;-38
2022/10/07 10:58:56;;;;;;;8.07;6.40;;;;;;;;;;5059338;28;20225;-36
2022/10/07 11:01:32;;;;;;;6.70;5.50;;;;;;;;;;5068561;28;20235;-43
2022/10/07 11:04:20;;;;;;;8.23;5.57;;;;;;;;;;5063865;28;20211;-42
2022/10/07 11:06:52;;;;;;;7.17;5.00;;;;;;;;;;5068346;28;20205;-39
2022/10/07 11:09:29;;;;;;;10.37;6.00;;;;;;;;;;5072219;28;20213;-42
2022/10/07 11:11:57;;;;;;;10.53;6.10;;;;;;;;;;5069938;28;20204;-42
2022/10/07 11:14:27;;;;;;;9.43;6.20;;;;;;;;;;5069667;28;20208;-39
2022/10/07 11:16:56;;;;;;;10.93;6.87;;;;;;;;;;5067796;28;20209;-42
2022/10/07 11:21:54;;;;;;;10.17;6.67;;;;;;;;;;5061392;28;20229;-42
2022/10/07 11:24:23;;;;;;;8.00;6.30;;;;;;;;;;5071511;28;20201;-47
2022/10/07 11:26:52;;;;;;;8.53;6.40;;;;;;;;;;5067085;28;20224;-45
2022/10/07 11:29:24;;;;;;;8.10;6.77;;;;;;;;;;5069731;28;20209;-42
2022/10/07 11:31:55;;;;;;;7.73;5.73;;;;;;;;;;5062622;28;20302;-44
2022/10/07 11:34:26;;;;;;;8.63;6.40;;;;;;;;;;5064926;28;20202;-42
2022/10/07 11:37:01;;;;;;;10.97;5.90;;;;;;;;;;5062640;28;20229;-45
2022/10/07 11:39:29;;;;;;;9.13;6.10;;;;;;;;;;5071062;28;20452;-44
2022/10/07 11:42:00;;;;;;;8.57;6.07;;;;;;;;;;5072207;28;20240;-43
2022/10/07 11:44:30;;;;;;;11.40;6.07;;;;;;;;;;5067681;28;20219;-45
2022/10/07 11:46:59;;;;;;;9.13;5.93;;;;;;;;;;5067153;28;20212;-47
2022/10/07 11:49:27;;;;;;;8.60;5.77;;;;;;;;;;5056345;28;20198;-44
2022/10/07 11:51:57;;;;;;;9.57;5.63;;;;;;;;;;5065427;28;20250;-44
2022/10/07 11:54:27;;;;;;;7.23;6.03;;;;;;;;;;5069715;28;20201;-47
2022/10/07 11:56:56;;;;;;;8.13;6.27;;;;;;;;;;5069945;28;20252;-42
2022/10/07 11:59:33;;;;;;;7.73;5.80;;;;;;;;;;5066058;28;20210;-41
2022/10/07 12:02:00;;;;;;;10.53;6.30;;;;;;;;;;5062388;28;20221;-41
2022/10/07 12:04:37;;;;;;;8.50;6.07;;;;;;;;;;5061713;28;20682;-45
2022/10/07 12:07:22;;;;;;;7.90;6.10;;;;;;;;;;5070203;28;20204;-42
2022/10/07 12:09:54;;;;;;;9.03;5.50;;;;;;;;;;5058877;28;20225;-45
2022/10/07 12:12:23;;;;;;;6.63;4.87;;;;;;;;;;5071644;28;20211;-44
2022/10/07 12:15:00;;;;;;;6.67;5.47;;;;;;;;;;5071510;28;20193;-46
2022/10/07 12:17:29;;;;;;;6.40;5.30;;;;;;;;;;5059870;28;20213;-44
2022/10/07 12:20:14;;;;;;;6.73;5.07;;;;;;;;;;5069120;28;20232;-45
2022/10/07 12:22:42;;;;;;;8.67;4.93;;;;;;;;;;5070785;28;20239;-44
2022/10/07 12:25:30;;;;;;;10.93;5.60;;;;;;;;;;5070831;28;20299;-43
2022/10/07 12:27:58;;;;;;;6.57;5.53;;;;;;;;;;5057599;28;20213;-46
2022/10/07 12:30:41;;;;;;;7.93;5.80;;;;;;;;;;5068676;28;20217;-43
2022/10/07 12:33:15;;;;;;;5.80;5.20;;;;;;;;;;5067890;28;20382;-43
2022/10/07 12:35:49;;;;;;;9.00;5.23;;;;;;;;;;5066548;28;20211;-40
2022/10/07 12:38:22;;;;;;;7.57;5.20;;;;;;;;;;5073067;28;20201;-43
2022/10/07 12:40:52;;;;;;;6.27;5.17;;;;;;;;;;5072619;28;20278;-46
2022/10/07 12:43:26;;;;;;;7.50;4.87;;;;;;;;;;5062651;28;20209;-46
2022/10/07 12:45:54;;;;;;;5.47;4.50;;;;;;;;;;5063967;28;20212;-44
2022/10/07 12:48:22;;;;;;;9.30;5.27;;;;;;;;;;5056238;28;20293;-44
2022/10/07 12:50:51;;;;;;;6.53;5.13;;;;;;;;;;5064827;28;20224;-44
2022/10/07 12:53:19;;;;;;;6.93;5.27;;;;;;;;;;5072160;28;20202;-45
2022/10/07 12:55:48;;;;;;;8.83;5.47;;;;;;;;;;5071877;28;20520;-48
2022/10/07 13:01:26;;;;;;;6.53;4.93;;;;;;;;;;5069917;28;20235;-41
2022/10/07 13:04:05;;;;;;;6.60;5.13;;;;;;;;;;5060621;28;20270;-44
2022/10/07 13:06:49;;;;;;;5.50;4.37;;;;;;;;;;5068691;28;20843;-44
2022/10/07 13:09:40;;;;;;;5.17;4.67;;;;;;;;;;5070902;28;20201;-41
2022/10/07 13:12:25;;;;;;;7.93;4.17;;;;;;;;;;5063355;28;20197;-43
2022/10/07 13:14:59;;;;;;;6.30;4.50;;;;;;;;;;5064315;28;20288;-43
2022/10/07 13:17:33;;;;;;;5.70;5.00;;;;;;;;;;5066861;28;20289;-44
2022/10/07 13:20:06;;;;;;;4.77;4.37;;;;;;;;;;5062038;28;20234;-43
2022/10/07 13:22:34;;;;;;;8.23;4.50;;;;;;;;;;5065990;28;20232;-40
2022/10/07 13:25:02;;;;;;;7.47;4.87;;;;;;;;;;5074877;28;20296;-45
2022/10/07 13:27:36;;;;;;;6.00;5.03;;;;;;;;;;5073253;28;20210;-42
2022/10/07 13:30:29;;;;;;;8.40;4.60;;;;;;;;;;5073424;28;20228;-48
2022/10/07 13:33:12;;;;;;;9.93;4.90;;;;;;;;;;5058063;28;20228;-46
2022/10/07 13:35:39;;;;;;;5.90;5.07;;;;;;;;;;5071453;28;20671;-46
2022/10/07 13:38:06;;;;;;;5.10;4.50;;;;;;;;;;5073800;28;20215;-46
2022/10/07 13:40:34;;;;;;;7.50;4.23;;;;;;;;;;5073592;28;20586;-44
2022/10/07 13:43:02;;;;;;;7.10;4.40;;;;;;;;;;5066886;28;20296;-43
2022/10/07 13:45:32;;;;;;;7.63;4.60;;;;;;;;;;5072764;28;20251;-44
2022/10/07 13:48:00;;;;;;;4.87;4.03;;;;;;;;;;5066154;28;20215;-41
2022/10/07 13:50:29;;;;;;;7.77;4.40;;;;;;;;;;5066888;28;20313;-45
2022/10/07 13:52:57;;;;;;;7.20;4.43;;;;;;;;;;5068395;28;20566;-45
2022/10/07 13:55:28;;;;;;;6.67;4.20;;;;;;;;;;5070422;28;20360;-46
2022/10/07 13:57:56;;;;;;;5.43;4.40;;;;;;;;;;5072585;28;20654;-43
2022/10/07 14:00:23;;;;;;;4.40;3.97;;;;;;;;;;5073172;28;20225;-46
2022/10/07 14:02:50;;;;;;;6.90;4.33;;;;;;;;;;5067691;28;20225;-45
2022/10/07 14:05:21;;;;;;;4.20;3.80;;;;;;;;;;5069429;28;20206;-45
2022/10/07 14:07:53;;;;;;;7.20;3.97;;;;;;;;;;5065827;28;20202;-44
2022/10/07 14:10:20;;;;;;;8.60;3.83;;;;;;;;;;5068030;28;20301;-43
2022/10/07 14:12:48;;;;;;;4.20;3.73;;;;;;;;;;5072651;28;20262;-44
2022/10/07 14:15:18;;;;;;;6.00;4.50;;;;;;;;;;5073896;28;20201;-43
2022/10/07 14:17:46;;;;;;;6.07;4.00;;;;;;;;;;5068700;28;20255;-44
2022/10/07 14:20:21;;;;;;;4.60;4.00;;;;;;;;;;5067269;28;20241;-42
2022/10/07 14:22:49;;;;;;;5.17;3.87;;;;;;;;;;5065819;28;20223;-43
2022/10/07 14:25:18;;;;;;;8.07;3.93;;;;;;;;;;5073590;28;20694;-45
2022/10/07 14:27:53;;;;;;;3.80;3.50;;;;;;;;;;5062864;28;20559;-43
2022/10/07 14:36:11;;;;;;;5.47;3.83;;;;;;;;;;5065925;28;20242;-45
2022/10/07 14:38:39;;;;;;;4.93;3.90;;;;;;;;;;5072668;28;20215;-44
2022/10/07 14:41:07;;;;;;;4.70;3.90;;;;;;;;;;5068042;28;20230;-45
2022/10/07 14:43:35;;;;;;;4.60;3.80;;;;;;;;;;5072026;28;20212;-44
2022/10/07 14:46:10;;;;;;;3.40;3.10;;;;;;;;;;5073458;28;20205;-47
2022/10/07 14:48:38;;;;;;;4.47;3.70;;;;;;;;;;5060540;28;20212;-42
2022/10/07 14:51:05;;;;;;;3.67;3.30;;;;;;;;;;5073368;28;20224;-47
2022/10/07 14:53:34;;;;;;;4.00;3.53;;;;;;;;;;5065359;28;20202;-47
2022/10/07 14:56:02;;;;;;;4.63;3.73;;;;;;;;;;5069836;28;20207;-41
2022/10/07 14:58:29;;;;;;;5.83;3.63;;;;;;;;;;5070958;28;20201;-41
2022/10/07 15:00:56;;;;;;;5.37;3.77;;;;;;;;;;5065041;28;20222;-44
2022/10/07 15:03:24;;;;;;;4.47;3.30;;;;;;;;;;5062769;28;20235;-42
2022/10/07 15:05:51;;;;;;;3.73;3.43;;;;;;;;;;5072707;28;20212;-44
2022/10/07 15:08:18;;;;;;;4.60;3.40;;;;;;;;;;5064583;28;20281;-45
2022/10/07 15:10:46;;;;;;;5.10;3.90;;;;;;;;;;5056816;28;20229;-46
2022/10/07 15:13:13;;;;;;;9.90;3.63;;;;;;;;;;5072681;28;20559;-45
2022/10/07 15:15:41;;;;;;;7.00;3.60;;;;;;;;;;5073018;28;20212;-45
2022/10/07 15:18:10;;;;;;;5.70;4.30;;;;;;;;;;5064086;28;20202;-44
2022/10/07 15:20:37;;;;;;;3.53;3.00;;;;;;;;;;5063789;28;20230;-45
2022/10/07 15:23:05;;;;;;;32.33;20.97;;;;;;;;;;5069463;28;20229;-42
2022/10/07 15:25:32;;;;;;;19.23;10.80;;;;;;;;;;5072483;28;20198;-43